Terminal Aerodrome Forecast
Issued by NWS Jackson, KY

Home | Current Version | Previous Version | Text Only | Print | Product List | Glossary On
Versions: 1 2 3 4 5 6 7 8 9 10 11 12 13 14
405
FTUS43 KJKL 161139
TAFJKL
TAF
KJKL 161139Z 1612/1712 22005KT P6SM SCT040
     FM161700 23009G15KT P6SM SKC
     FM170000 VRB05KT P6SM SKC
     FM171100 VRB03KT P6SM BKN150=

USA.gov is the U.S. government's official web portal to all federal, state and local government web resources and services.